Time;durP1;ratioP1;P1;durP2;ratioP2;P2;SDS_P1;SDS_P2;PMS_P1;PMS_P2;Temp;Humidity;BMP_temperature;BMP_pressure;BME280_temperature;BME280_humidity;BME280_pressure;Samples;Min_cycle;Max_cycle;Signal;HPM_P1;HPM_P2
2021/12/19 00:00:10;;;;;;;50.13;16.02;;;;;;;5.79;100.00;103667.38;5059202;28;20084;-48
2021/12/19 00:02:48;;;;;;;43.10;15.63;;;;;;;5.82;100.00;103665.50;5076665;28;20515;-45
2021/12/19 00:10:42;;;;;;;56.70;18.38;;;;;;;5.82;100.00;103653.09;5076694;28;20499;-45
2021/12/19 00:13:08;;;;;;;52.28;18.92;;;;;;;5.82;100.00;103649.59;5076734;28;20020;-44
2021/12/19 00:15:34;;;;;;;54.22;18.33;;;;;;;5.79;100.00;103643.50;5077375;28;20479;-45
2021/12/19 00:17:59;;;;;;;63.60;20.45;;;;;;;5.81;100.00;103632.84;5071565;28;20032;-45
2021/12/19 00:20:24;;;;;;;57.20;20.55;;;;;;;5.78;100.00;103635.59;5077341;28;20031;-45
2021/12/19 00:22:49;;;;;;;62.35;21.20;;;;;;;5.79;100.00;103645.31;5076887;28;20176;-46
2021/12/19 00:25:15;;;;;;;77.13;23.65;;;;;;;5.72;100.00;103644.69;5076291;28;20411;-48
2021/12/19 00:27:40;;;;;;;75.47;23.60;;;;;;;5.70;100.00;103643.00;5076170;28;20077;-45
2021/12/19 00:30:06;;;;;;;78.00;21.73;;;;;;;5.70;100.00;103640.34;5075820;28;20076;-45
2021/12/19 00:32:31;;;;;;;68.13;19.88;;;;;;;5.71;100.00;103637.63;5076232;28;20028;-45
2021/12/19 00:34:56;;;;;;;58.80;17.75;;;;;;;5.70;100.00;103641.22;5076102;28;20043;-45
2021/12/19 00:37:22;;;;;;;60.63;16.50;;;;;;;5.70;100.00;103640.34;5065311;28;20056;-46
2021/12/19 00:39:48;;;;;;;58.10;15.13;;;;;;;5.69;100.00;103634.19;5057767;28;20020;-46
2021/12/19 00:42:24;;;;;;;50.17;13.82;;;;;;;5.65;100.00;103629.06;5059877;28;20056;-45
2021/12/19 00:44:52;;;;;;;58.03;14.82;;;;;;;5.66;100.00;103629.00;5060466;28;20117;-46
2021/12/19 00:47:17;;;;;;;57.70;15.43;;;;;;;5.67;100.00;103630.72;5060637;28;20356;-46
2021/12/19 00:49:42;;;;;;;55.55;15.85;;;;;;;5.67;100.00;103624.53;5072789;28;20052;-47
2021/12/19 00:52:07;;;;;;;65.22;16.27;;;;;;;5.66;100.00;103614.88;5080482;28;20364;-46
2021/12/19 00:54:33;;;;;;;63.60;16.45;;;;;;;5.66;100.00;103623.69;5080636;28;20032;-44
2021/12/19 00:56:58;;;;;;;66.55;18.35;;;;;;;5.65;100.00;103624.63;5080014;28;20055;-48
2021/12/19 00:59:23;;;;;;;64.35;17.77;;;;;;;5.60;100.00;103619.50;5080675;28;20411;-48
2021/12/19 01:01:49;;;;;;;71.60;17.60;;;;;;;5.56;100.00;103620.53;5079751;28;20036;-46
2021/12/19 01:04:17;;;;;;;69.40;18.05;;;;;;;5.56;100.00;103625.84;5079264;28;20028;-46
2021/12/19 01:06:44;;;;;;;64.40;17.38;;;;;;;5.54;100.00;103618.88;5079188;28;20163;-44
2021/12/19 01:09:10;;;;;;;71.82;19.08;;;;;;;5.52;100.00;103613.63;5061630;28;20028;-46
2021/12/19 01:11:36;;;;;;;61.33;15.75;;;;;;;5.52;100.00;103610.97;5079753;28;20092;-45
2021/12/19 01:14:02;;;;;;;74.63;18.55;;;;;;;5.50;100.00;103610.19;5079398;28;20087;-45
2021/12/19 01:16:27;;;;;;;78.28;18.60;;;;;;;5.51;100.00;103608.38;5080293;28;20385;-46
2021/12/19 01:18:53;;;;;;;84.43;21.20;;;;;;;5.50;100.00;103609.31;5078549;28;20024;-45
2021/12/19 01:21:18;;;;;;;95.13;20.80;;;;;;;5.48;100.00;103609.38;5080405;28;20042;-49
2021/12/19 01:23:44;;;;;;;88.30;20.88;;;;;;;5.47;100.00;103606.78;5079346;28;20445;-46
2021/12/19 01:26:11;;;;;;;81.05;19.20;;;;;;;5.50;100.00;103607.53;5079072;28;20016;-44
2021/12/19 01:28:37;;;;;;;75.80;18.52;;;;;;;5.49;100.00;103602.28;5058470;28;20029;-45
2021/12/19 01:31:03;;;;;;;74.10;17.80;;;;;;;5.49;100.00;103600.50;5059318;28;20058;-46
2021/12/19 01:33:28;;;;;;;87.15;20.55;;;;;;;5.48;100.00;103601.44;5040321;28;20114;-46
2021/12/19 01:35:54;;;;;;;86.15;19.65;;;;;;;5.48;100.00;103608.50;5077906;28;20040;-45
2021/12/19 01:38:19;;;;;;;90.35;19.27;;;;;;;5.48;100.00;103606.75;5042166;28;20039;-44
2021/12/19 01:40:44;;;;;;;102.72;22.38;;;;;;;5.46;100.00;103603.25;5058664;28;20025;-47
2021/12/19 01:43:10;;;;;;;117.88;23.65;;;;;;;5.42;100.00;103596.38;5058020;28;20064;-46
2021/12/19 01:45:38;;;;;;;105.93;22.15;;;;;;;5.39;100.00;103599.97;5074960;28;20028;-47
2021/12/19 01:48:07;;;;;;;114.68;20.15;;;;;;;5.38;100.00;103592.97;5074451;28;20605;-45
2021/12/19 01:50:33;;;;;;;106.57;22.15;;;;;;;5.36;100.00;103596.59;5076740;28;20048;-45
2021/12/19 01:53:05;;;;;;;130.35;24.10;;;;;;;5.37;100.00;103593.88;5077308;28;20099;-46
2021/12/19 01:55:33;;;;;;;104.30;21.67;;;;;;;5.38;100.00;103589.44;5078427;28;20035;-48
2021/12/19 01:57:59;;;;;;;115.95;23.45;;;;;;;5.36;100.00;103592.16;5077575;28;20026;-48
2021/12/19 02:00:28;;;;;;;129.55;24.30;;;;;;;5.34;100.00;103586.03;5077849;28;20115;-48
2021/12/19 02:02:54;;;;;;;112.05;22.33;;;;;;;5.37;100.00;103588.56;5076210;28;20475;-46
2021/12/19 02:05:20;;;;;;;116.00;24.35;;;;;;;5.34;100.00;103588.69;5077373;28;20016;-47
2021/12/19 02:07:48;;;;;;;110.22;23.48;;;;;;;5.31;100.00;103583.53;5077434;28;20068;-46
2021/12/19 02:10:18;;;;;;;104.03;21.33;;;;;;;5.28;100.00;103586.31;5077258;28;20031;-46
2021/12/19 02:12:45;;;;;;;95.88;22.17;;;;;;;5.28;100.00;103578.34;5074721;28;20012;-47
2021/12/19 02:15:16;;;;;;;102.38;21.23;;;;;;;5.26;100.00;103580.19;5077493;28;20096;-46
2021/12/19 02:17:42;;;;;;;111.70;22.33;;;;;;;5.24;100.00;103579.38;5074527;28;20459;-50
2021/12/19 02:20:11;;;;;;;91.55;20.40;;;;;;;5.21;100.00;103580.38;5076808;28;20032;-45
2021/12/19 02:22:37;;;;;;;103.88;22.25;;;;;;;5.22;100.00;103579.44;5076612;28;20036;-46
2021/12/19 02:25:03;;;;;;;102.85;23.00;;;;;;;5.20;100.00;103573.31;5076297;28;20005;-48
2021/12/19 02:27:28;;;;;;;98.07;22.65;;;;;;;5.18;100.00;103563.72;5077064;28;20034;-47
2021/12/19 02:29:56;;;;;;;105.60;22.27;;;;;;;5.18;100.00;103572.53;5057257;28;20024;-44
2021/12/19 02:32:21;;;;;;;100.57;22.88;;;;;;;5.14;100.00;103570.94;5076435;28;20024;-47
2021/12/19 02:34:49;;;;;;;103.07;22.05;;;;;;;5.11;100.00;103562.22;5076804;28;20440;-45
2021/12/19 02:37:56;;;;;;;104.93;22.52;;;;;;;5.10;100.00;103560.50;5076823;28;20035;-48
2021/12/19 02:40:29;;;;;;;76.07;17.83;;;;;;;5.05;100.00;103556.22;5074213;28;20051;-46
2021/12/19 02:48:26;;;;;;;81.22;19.63;;;;;;;4.91;100.00;103557.69;5074793;28;20718;-48
2021/12/19 02:50:53;;;;;;;72.88;18.25;;;;;;;4.87;100.00;103559.56;5076374;28;20052;-46
2021/12/19 02:53:37;;;;;;;83.97;18.73;;;;;;;4.84;100.00;103549.97;5077291;28;20020;-45
2021/12/19 02:56:06;;;;;;;92.07;19.52;;;;;;;4.77;100.00;103540.53;5076096;28;20301;-45
2021/12/19 02:58:32;;;;;;;85.47;18.45;;;;;;;4.81;100.00;103552.72;5075947;28;20024;-49
2021/12/19 03:00:59;;;;;;;85.85;18.48;;;;;;;4.83;100.00;103547.38;5057315;28;20568;-47
2021/12/19 03:03:25;;;;;;;111.88;21.70;;;;;;;4.81;100.00;103547.41;5055726;28;20127;-44
2021/12/19 03:05:50;;;;;;;94.82;19.17;;;;;;;4.84;100.00;103544.66;5077097;28;20174;-48
2021/12/19 03:08:15;;;;;;;122.70;20.50;;;;;;;4.84;100.00;103541.16;5077289;28;20476;-50
2021/12/19 03:17:57;;;;;;;96.93;18.30;;;;;;;4.82;100.00;103530.63;5076177;28;20520;-45
2021/12/19 03:18:41;;;;;;;71.28;14.30;;;;;;;4.77;100.00;103534.34;5075900;28;20171;-51
2021/12/19 03:21:11;;;;;;;61.65;13.60;;;;;;;4.79;100.00;103527.22;5077315;28;20555;-45
2021/12/19 03:23:37;;;;;;;48.55;10.85;;;;;;;4.75;100.00;103538.84;5076675;28;20042;-45
2021/12/19 03:26:02;;;;;;;53.55;13.00;;;;;;;4.76;100.00;103528.19;5076994;28;20028;-49
2021/12/19 03:28:27;;;;;;;57.25;13.85;;;;;;;4.74;100.00;103527.41;5077155;28;20027;-47
2021/12/19 03:30:53;;;;;;;63.40;14.57;;;;;;;4.71;100.00;103513.41;5076989;28;20122;-45
2021/12/19 03:33:19;;;;;;;65.20;16.27;;;;;;;4.71;100.00;103521.34;5076806;28;20073;-48
2021/12/19 03:35:44;;;;;;;34.22;9.85;;;;;;;4.70;100.00;103512.56;5075918;28;20119;-50
2021/12/19 03:38:12;;;;;;;32.08;8.50;;;;;;;4.63;100.00;103511.91;5076631;28;20518;-46
2021/12/19 03:40:40;;;;;;;36.35;8.52;;;;;;;4.63;100.00;103517.22;5076671;28;20036;-47
2021/12/19 03:43:15;;;;;;;29.40;9.10;;;;;;;4.58;100.00;103507.69;5076710;28;20020;-47
2021/12/19 03:45:42;;;;;;;35.03;8.52;;;;;;;4.56;100.00;103514.84;5076782;28;20304;-45
2021/12/19 03:48:11;;;;;;;26.48;7.43;;;;;;;4.53;100.00;103509.66;5075887;28;20020;-46
2021/12/19 03:50:37;;;;;;;23.77;7.18;;;;;;;4.52;100.00;103505.28;5076730;28;20407;-46
2021/12/19 03:53:03;;;;;;;23.77;7.55;;;;;;;4.51;100.00;103506.19;5058337;28;20020;-46
2021/12/19 03:55:28;;;;;;;22.45;7.20;;;;;;;4.51;100.00;103507.06;5077540;28;20083;-47
2021/12/19 03:57:57;;;;;;;18.27;5.88;;;;;;;4.53;100.00;103504.34;5076646;28;20025;-43
2021/12/19 04:00:24;;;;;;;21.08;6.82;;;;;;;4.49;100.00;103506.25;5076914;28;20104;-46
2021/12/19 04:02:53;;;;;;;19.10;6.10;;;;;;;4.49;100.00;103509.75;5076373;28;20130;-45
2021/12/19 04:05:19;;;;;;;19.02;5.57;;;;;;;4.49;100.00;103504.47;5077224;28;20180;-45
2021/12/19 04:07:44;;;;;;;21.27;6.22;;;;;;;4.48;100.00;103496.56;5076421;28;20028;-45
2021/12/19 04:10:10;;;;;;;17.42;5.63;;;;;;;4.51;100.00;103492.97;5076708;28;20024;-46
2021/12/19 04:12:35;;;;;;;18.38;5.10;;;;;;;4.49;100.00;103485.94;5075704;28;20440;-47
2021/12/19 04:15:00;;;;;;;16.13;4.65;;;;;;;4.50;100.00;103481.53;5078580;28;20016;-47
2021/12/19 04:17:25;;;;;;;18.63;5.45;;;;;;;4.49;100.00;103471.84;5080074;28;20057;-47
2021/12/19 04:19:51;;;;;;;21.48;5.90;;;;;;;4.47;100.00;103461.31;5080377;28;20031;-44
2021/12/19 04:22:16;;;;;;;23.27;6.18;;;;;;;4.46;100.00;103462.25;5080824;28;20507;-48
2021/12/19 04:24:41;;;;;;;20.23;6.05;;;;;;;4.41;100.00;103460.69;5079479;28;20218;-46
2021/12/19 04:27:07;;;;;;;20.80;6.30;;;;;;;4.39;100.00;103463.38;5080011;28;20028;-50
2021/12/19 04:29:32;;;;;;;22.45;5.95;;;;;;;4.35;100.00;103461.78;5080853;28;20024;-45
2021/12/19 04:31:57;;;;;;;22.48;5.55;;;;;;;4.33;100.00;103446.84;5061219;28;20074;-47
2021/12/19 04:34:23;;;;;;;25.98;6.50;;;;;;;4.34;100.00;103444.16;5081075;28;20654;-45
2021/12/19 04:36:56;;;;;;;23.25;5.65;;;;;;;4.31;100.00;103438.97;5080177;28;20032;-45
2021/12/19 05:00:55;;;;;;;22.35;5.40;;;;;;;4.32;100.00;103434.56;5080213;28;20032;-49
2021/12/19 05:03:44;;;;;;;24.02;5.43;;;;;;;4.30;100.00;103422.25;5079685;28;20028;-46
2021/12/19 05:06:20;;;;;;;24.20;5.78;;;;;;;4.30;100.00;103416.09;5079555;28;20496;-44
2021/12/19 05:14:18;;;;;;;28.60;5.40;;;;;;;4.32;100.00;103424.84;5080273;28;20487;-48
2021/12/19 05:16:46;;;;;;;35.13;6.72;;;;;;;4.34;100.00;103425.63;5078433;28;20383;-47
2021/12/19 05:19:26;;;;;;;26.63;6.03;;;;;;;4.34;100.00;103416.84;5080154;28;20514;-45
2021/12/19 05:21:56;;;;;;;33.20;6.10;;;;;;;4.36;100.00;103418.53;5079468;28;20520;-47
2021/12/19 05:24:47;;;;;;;31.02;5.30;;;;;;;4.37;100.00;103422.88;5079974;28;20349;-47
2021/12/19 05:27:09;;;;;;;27.13;6.07;;;;;;;4.41;100.00;103419.22;5064914;28;20398;-49
2021/12/19 05:29:36;;;;;;;26.65;5.68;;;;;;;4.40;100.00;103422.78;5059651;28;20470;-47
2021/12/19 05:32:03;;;;;;;21.65;5.15;;;;;;;4.43;100.00;103422.66;5058665;28;20766;-49
2021/12/19 05:34:30;;;;;;;28.65;5.65;;;;;;;4.45;100.00;103418.19;5059594;28;20456;-48
2021/12/19 05:47:36;;;;;;;31.80;7.00;;;;;;;4.44;100.00;103412.94;5058279;28;20119;-48
2021/12/19 05:50:04;;;;;;;36.80;6.30;;;;;;;4.45;100.00;103418.19;5058126;28;20480;-45
2021/12/19 05:52:29;;;;;;;34.58;6.72;;;;;;;4.45;100.00;103410.25;5059268;28;20329;-45
2021/12/19 05:54:54;;;;;;;40.22;7.22;;;;;;;4.45;100.00;103397.00;5066274;28;20023;-45
2021/12/19 05:57:20;;;;;;;30.63;6.22;;;;;;;4.49;100.00;103403.91;5078907;28;20020;-45
2021/12/19 05:59:45;;;;;;;49.13;8.30;;;;;;;4.51;100.00;103392.41;5079097;28;20361;-47
2021/12/19 06:02:10;;;;;;;31.58;5.57;;;;;;;4.49;100.00;103388.03;5078100;28;20421;-49
2021/12/19 06:04:36;;;;;;;38.50;7.20;;;;;;;4.47;100.00;103389.00;5078442;28;20042;-47
2021/12/19 06:07:01;;;;;;;31.67;5.65;;;;;;;4.48;100.00;103382.78;5078728;28;20027;-48
2021/12/19 06:09:26;;;;;;;30.48;6.07;;;;;;;4.50;100.00;103388.91;5077971;28;20028;-44
2021/12/19 06:11:52;;;;;;;41.97;7.47;;;;;;;4.49;100.00;103397.75;5078453;28;20448;-46
2021/12/19 06:14:17;;;;;;;29.65;5.85;;;;;;;4.51;100.00;103392.41;5079060;28;20103;-46
2021/12/19 06:16:42;;;;;;;39.50;6.35;;;;;;;4.53;100.00;103391.44;5077446;28;20087;-47
2021/12/19 06:19:07;;;;;;;28.25;5.45;;;;;;;4.56;100.00;103379.84;5078877;28;20531;-46
2021/12/19 06:21:33;;;;;;;45.33;7.30;;;;;;;4.56;100.00;103390.44;5059906;28;20852;-45
2021/12/19 06:23:58;;;;;;;41.97;6.93;;;;;;;4.58;100.00;103394.78;5077247;28;20167;-49
2021/12/19 06:26:23;;;;;;;42.17;6.60;;;;;;;4.56;100.00;103391.28;5078450;28;20028;-46
2021/12/19 06:28:49;;;;;;;36.47;6.63;;;;;;;4.59;100.00;103395.63;5078933;28;20443;-46
2021/12/19 06:31:16;;;;;;;36.47;7.03;;;;;;;4.60;100.00;103389.38;5079006;28;20027;-46
2021/12/19 06:33:41;;;;;;;38.67;6.63;;;;;;;4.60;100.00;103384.09;5077287;28;20047;-46
2021/12/19 06:36:08;;;;;;;39.75;6.70;;;;;;;4.61;100.00;103385.84;5078203;28;20366;-46
2021/12/19 06:38:33;;;;;;;38.15;6.90;;;;;;;4.63;100.00;103382.22;5058140;28;20050;-45
2021/12/19 06:40:58;;;;;;;43.45;7.28;;;;;;;4.63;100.00;103387.50;5077904;28;20028;-48
2021/12/19 06:43:25;;;;;;;43.67;7.88;;;;;;;4.64;100.00;103383.94;5078499;28;20533;-47
2021/12/19 06:45:50;;;;;;;40.15;7.68;;;;;;;4.64;100.00;103372.47;5078661;28;20024;-44
2021/12/19 06:48:15;;;;;;;44.22;8.50;;;;;;;4.65;100.00;103372.44;5058824;28;20071;-46
2021/12/19 06:50:41;;;;;;;42.42;7.65;;;;;;;4.65;100.00;103372.44;5077388;28;20356;-45
2021/12/19 06:53:06;;;;;;;44.55;8.15;;;;;;;4.66;100.00;103366.19;5077378;28;20104;-45
2021/12/19 06:55:31;;;;;;;56.45;9.65;;;;;;;4.68;100.00;103355.53;5078409;28;20390;-44
2021/12/19 06:57:56;;;;;;;54.38;9.60;;;;;;;4.68;100.00;103342.31;5077246;28;20027;-45
2021/12/19 07:00:24;;;;;;;55.03;9.70;;;;;;;4.71;100.00;103344.84;5078326;28;20027;-45
2021/12/19 07:02:49;;;;;;;44.30;8.70;;;;;;;4.72;100.00;103343.94;5077399;28;20024;-47
2021/12/19 07:05:15;;;;;;;56.78;10.27;;;;;;;4.73;100.00;103347.44;5071600;28;20042;-44
2021/12/19 07:07:40;;;;;;;61.50;9.88;;;;;;;4.74;100.00;103343.88;5057342;28;20056;-44
2021/12/19 07:10:07;;;;;;;53.92;9.48;;;;;;;4.75;100.00;103341.16;5057713;28;20031;-43
2021/12/19 07:12:32;;;;;;;60.95;11.90;;;;;;;4.75;100.00;103343.81;5057093;28;20169;-45
2021/12/19 07:14:58;;;;;;;53.67;11.63;;;;;;;4.78;100.00;103341.03;5058870;28;20161;-49
2021/12/19 07:17:24;;;;;;;62.90;11.63;;;;;;;4.80;100.00;103347.13;5077677;28;20028;-45
2021/12/19 07:19:49;;;;;;;66.68;12.13;;;;;;;4.81;100.00;103346.19;5076182;28;20096;-48
2021/12/19 07:22:15;;;;;;;53.95;11.15;;;;;;;4.84;100.00;103350.53;5077675;28;20380;-44
2021/12/19 07:24:40;;;;;;;57.90;11.10;;;;;;;4.87;100.00;103347.72;5077098;28;20031;-46
2021/12/19 07:27:07;;;;;;;67.85;11.70;;;;;;;4.89;100.00;103345.91;5077382;28;20028;-46
2021/12/19 07:29:32;;;;;;;58.83;12.18;;;;;;;4.92;100.00;103347.53;5077728;28;20042;-45
2021/12/19 07:31:58;;;;;;;61.47;11.85;;;;;;;4.94;100.00;103341.28;5076061;28;20032;-46
2021/12/19 07:34:31;;;;;;;58.40;11.88;;;;;;;4.95;100.00;103340.34;5077653;28;20028;-45
2021/12/19 07:36:57;;;;;;;63.65;11.65;;;;;;;4.99;100.00;103336.66;5076937;28;20126;-47
2021/12/19 07:39:38;;;;;;;60.58;12.68;;;;;;;5.02;100.00;103333.88;5077476;28;20142;-46
2021/12/19 07:42:11;;;;;;;53.85;11.90;;;;;;;5.03;100.00;103324.16;5076386;28;20059;-45
2021/12/19 07:44:38;;;;;;;45.90;11.63;;;;;;;5.04;100.00;103321.44;5077291;28;20024;-44
2021/12/19 07:47:06;;;;;;;50.08;12.05;;;;;;;5.07;100.00;103327.53;5076403;28;20208;-47
2021/12/19 07:49:31;;;;;;;52.33;11.05;;;;;;;5.09;100.00;103326.56;5078597;28;20177;-44
2021/12/19 07:51:57;;;;;;;57.85;11.65;;;;;;;5.11;100.00;103322.03;5080597;28;20039;-47
2021/12/19 07:54:22;;;;;;;48.25;11.25;;;;;;;5.11;100.00;103324.69;5080424;28;20499;-45
2021/12/19 07:56:48;;;;;;;57.30;11.00;;;;;;;5.14;100.00;103331.63;5080971;28;20032;-43
2021/12/19 07:59:13;;;;;;;57.08;11.90;;;;;;;5.15;100.00;103314.81;5081559;28;20416;-48
2021/12/19 08:01:39;;;;;;;51.47;11.27;;;;;;;5.16;100.00;103309.47;5080491;28;20518;-44
2021/12/19 08:04:04;;;;;;;55.75;11.48;;;;;;;5.17;100.00;103305.88;5081286;28;20508;-48
2021/12/19 08:06:30;;;;;;;57.92;11.23;;;;;;;5.18;100.00;103304.97;5081059;28;20459;-46
2021/12/19 08:08:57;;;;;;;56.33;11.90;;;;;;;5.22;100.00;103303.03;5079249;28;20573;-45
2021/12/19 08:11:40;;;;;;;44.75;9.73;;;;;;;5.22;100.00;103303.88;5080822;28;20369;-45
2021/12/19 08:14:09;;;;;;;45.25;9.35;;;;;;;5.26;100.00;103317.00;5081363;28;20024;-46
2021/12/19 08:16:35;;;;;;;54.65;10.10;;;;;;;5.28;100.00;103315.16;5061505;28;20033;-47
2021/12/19 08:19:00;;;;;;;44.13;9.30;;;;;;;5.28;100.00;103309.84;5061501;28;20106;-45
2021/12/19 08:21:26;;;;;;;41.58;8.88;;;;;;;5.29;100.00;103306.28;5080979;28;20020;-49
2021/12/19 08:23:52;;;;;;;34.20;8.93;;;;;;;5.32;100.00;103308.81;5080407;28;20456;-43
2021/12/19 08:26:17;;;;;;;37.28;8.68;;;;;;;5.32;100.00;103314.09;5081278;28;20028;-45
2021/12/19 08:28:42;;;;;;;37.47;7.80;;;;;;;5.34;100.00;103309.59;5080025;28;20024;-47
2021/12/19 08:31:08;;;;;;;30.23;6.82;;;;;;;5.35;100.00;103308.69;5080302;28;20290;-45
2021/12/19 08:33:34;;;;;;;27.02;5.75;;;;;;;5.36;100.00;103299.78;5080589;28;20020;-46
2021/12/19 08:35:59;;;;;;;21.58;5.30;;;;;;;5.35;100.00;103301.59;5080797;28;20836;-46
2021/12/19 08:38:25;;;;;;;25.38;5.03;;;;;;;5.37;100.00;103304.16;5080783;28;20254;-44
2021/12/19 08:40:51;;;;;;;17.85;4.55;;;;;;;5.39;100.00;103307.63;5080419;28;20071;-45
2021/12/19 08:43:19;;;;;;;18.73;4.80;;;;;;;5.41;100.00;103311.94;5080430;28;20028;-49
2021/12/19 08:45:45;;;;;;;15.07;4.55;;;;;;;5.42;100.00;103303.03;5079218;28;20032;-47
2021/12/19 08:48:10;;;;;;;16.15;4.07;;;;;;;5.45;100.00;103304.69;5078781;28;20503;-46
2021/12/19 08:50:37;;;;;;;17.02;4.53;;;;;;;5.42;100.00;103305.69;5079030;28;20135;-48
2021/12/19 08:53:02;;;;;;;15.25;4.10;;;;;;;5.45;100.00;103295.88;5078623;28;20024;-44
2021/12/19 08:55:28;;;;;;;15.93;3.70;;;;;;;5.48;100.00;103295.75;5061664;28;20031;-48
2021/12/19 08:57:53;;;;;;;18.60;4.38;;;;;;;5.49;100.00;103293.03;5079003;28;20083;-48
2021/12/19 09:00:20;;;;;;;18.88;4.60;;;;;;;5.49;100.00;103293.03;5079206;28;20243;-45
2021/12/19 09:02:50;;;;;;;24.73;5.07;;;;;;;5.52;100.00;103286.75;5078418;28;20039;-45
2021/12/19 09:05:16;;;;;;;24.40;5.43;;;;;;;5.53;100.00;103289.34;5079640;28;20123;-47
2021/12/19 09:07:41;;;;;;;22.90;5.97;;;;;;;5.54;100.00;103280.44;5078872;28;20066;-46
2021/12/19 09:10:08;;;;;;;28.38;6.60;;;;;;;5.54;100.00;103285.72;5078679;28;20027;-46
2021/12/19 09:12:33;;;;;;;31.65;8.02;;;;;;;5.54;100.00;103287.53;5078757;28;20410;-46
2021/12/19 09:14:58;;;;;;;38.08;9.57;;;;;;;5.54;100.00;103282.22;5059610;28;20035;-46
2021/12/19 09:17:24;;;;;;;37.30;8.40;;;;;;;5.56;100.00;103283.88;5078366;28;20036;-47
2021/12/19 09:19:49;;;;;;;36.33;8.95;;;;;;;5.58;100.00;103284.69;5078820;28;20440;-46
2021/12/19 09:22:15;;;;;;;40.35;9.68;;;;;;;5.58;100.00;103282.03;5078960;28;20050;-45
2021/12/19 09:24:40;;;;;;;35.13;9.70;;;;;;;5.62;100.00;103285.41;5078345;28;20028;-49
2021/12/19 09:27:07;;;;;;;42.42;10.50;;;;;;;5.63;100.00;103288.91;5078394;28;20016;-46
2021/12/19 09:29:32;;;;;;;41.15;10.93;;;;;;;5.63;100.00;103284.47;5078286;28;20486;-46
2021/12/19 09:31:59;;;;;;;36.72;10.07;;;;;;;5.68;100.00;103293.06;5077411;28;20031;-44
2021/12/19 09:34:26;;;;;;;43.53;11.35;;;;;;;5.68;100.00;103289.56;5078752;28;20023;-49
2021/12/19 09:36:52;;;;;;;45.50;11.68;;;;;;;5.70;100.00;103290.34;5074889;28;20485;-45
2021/12/19 09:39:18;;;;;;;36.85;10.82;;;;;;;5.70;100.00;103280.63;5078513;28;20069;-46
2021/12/19 09:41:45;;;;;;;40.17;11.32;;;;;;;5.73;100.00;103280.47;5058691;28;20601;-44
2021/12/19 09:44:13;;;;;;;36.38;11.68;;;;;;;5.76;100.00;103287.44;5076653;28;20107;-45
2021/12/19 09:46:42;;;;;;;41.25;12.20;;;;;;;5.77;100.00;103283.84;5076962;28;20105;-44
2021/12/19 09:49:10;;;;;;;37.45;11.90;;;;;;;5.84;100.00;103271.16;5077226;28;20277;-46
2021/12/19 09:51:36;;;;;;;39.22;12.23;;;;;;;5.92;100.00;103284.94;5077528;28;20020;-46
2021/12/19 09:54:01;;;;;;;37.83;12.18;;;;;;;5.98;100.00;103285.53;5076628;28;20047;-46
2021/12/19 09:56:27;;;;;;;36.63;12.40;;;;;;;6.01;100.00;103294.28;5077231;28;20046;-43
2021/12/19 09:58:53;;;;;;;39.42;12.23;;;;;;;6.01;100.00;103287.22;5076715;28;20108;-45
2021/12/19 10:01:19;;;;;;;36.45;12.18;;;;;;;6.06;100.00;103289.63;5077229;28;20129;-61
2021/12/19 10:03:44;;;;;;;36.45;12.63;;;;;;;6.07;100.00;103286.91;5077872;28;20016;-45
2021/12/19 10:06:24;;;;;;;36.78;13.32;;;;;;;6.11;100.00;103284.97;5076576;28;20032;-44
2021/12/19 10:09:06;;;;;;;41.10;13.50;;;;;;;6.12;100.00;103282.25;5076358;28;20111;-59
2021/12/19 10:11:45;;;;;;;45.42;14.55;;;;;;;6.10;100.00;103277.97;5076288;28;20031;-50
2021/12/19 10:14:27;;;;;;;44.75;16.23;;;;;;;6.14;100.00;103272.44;5076542;28;20111;-49
2021/12/19 10:16:53;;;;;;;42.50;15.73;;;;;;;6.14;100.00;103275.09;5075224;28;20096;-49
2021/12/19 10:19:19;;;;;;;40.17;14.98;;;;;;;6.13;100.00;103268.06;5076767;28;20413;-48
2021/12/19 10:21:44;;;;;;;39.53;14.45;;;;;;;6.10;100.00;103262.88;5075906;28;20012;-47
2021/12/19 10:24:28;;;;;;;37.92;14.75;;;;;;;6.13;100.00;103268.06;5076543;28;20085;-46
2021/12/19 10:26:54;;;;;;;37.08;14.00;;;;;;;6.13;100.00;103262.75;5056735;28;20168;-48
2021/12/19 10:29:19;;;;;;;43.38;14.18;;;;;;;6.12;100.00;103261.03;5077435;28;20051;-47
2021/12/19 10:32:03;;;;;;;32.35;13.27;;;;;;;6.13;100.00;103257.44;5075965;28;20081;-44
2021/12/19 10:34:28;;;;;;;32.78;12.52;;;;;;;6.11;100.00;103250.47;5076787;28;20089;-45
2021/12/19 10:36:53;;;;;;;30.65;12.00;;;;;;;6.11;100.00;103247.81;5076820;28;20028;-45
2021/12/19 10:39:19;;;;;;;27.98;10.77;;;;;;;6.13;100.00;103251.28;5076832;28;20015;-48
2021/12/19 10:41:56;;;;;;;33.95;12.45;;;;;;;6.15;100.00;103252.06;5076784;28;20027;-47
2021/12/19 10:47:22;;;;;;;29.65;10.55;;;;;;;6.20;100.00;103243.91;5076141;28;20161;-47
2021/12/19 10:49:47;;;;;;;22.23;7.78;;;;;;;6.23;100.00;103244.63;5074610;28;20100;-44
2021/12/19 10:52:12;;;;;;;27.23;9.05;;;;;;;6.27;100.00;103232.91;5076540;28;20031;-45
2021/12/19 10:54:56;;;;;;;16.67;7.35;;;;;;;6.31;100.00;103238.91;5075016;28;20035;-45
2021/12/19 10:57:31;;;;;;;15.23;6.43;;;;;;;6.30;100.00;103234.56;5075047;28;20072;-46
2021/12/19 10:59:56;;;;;;;16.40;7.13;;;;;;;6.34;100.00;103233.47;5073559;28;20136;-45
2021/12/19 11:02:40;;;;;;;17.13;6.50;;;;;;;6.39;100.00;103230.59;5074861;28;20169;-47
2021/12/19 11:05:26;;;;;;;19.17;6.82;;;;;;;6.39;100.00;103231.44;5074431;28;20023;-44
2021/12/19 11:08:00;;;;;;;11.68;4.85;;;;;;;6.40;100.00;103219.03;5074528;28;20032;-47
2021/12/19 11:10:27;;;;;;;10.32;3.72;;;;;;;6.39;100.00;103217.31;5056232;28;20034;-46
2021/12/19 11:13:25;;;;;;;7.30;2.88;;;;;;;6.39;100.00;103207.56;5061298;28;20051;-44
2021/12/19 11:15:51;;;;;;;6.93;2.60;;;;;;;6.38;100.00;103202.31;5000809;28;20060;-49
2021/12/19 11:18:16;;;;;;;6.60;2.20;;;;;;;6.36;100.00;103197.09;5071519;28;20067;-48
2021/12/19 11:20:42;;;;;;;6.50;2.95;;;;;;;6.32;100.00;103188.41;5076419;28;20032;-51
2021/12/19 11:23:08;;;;;;;5.55;2.75;;;;;;;6.32;100.00;103184.91;5057246;28;20028;-46
2021/12/19 11:25:35;;;;;;;6.32;3.08;;;;;;;6.32;100.00;103185.75;5077210;28;20030;-44
2021/12/19 11:28:02;;;;;;;12.38;4.47;;;;;;;6.36;100.00;103186.47;5075783;28;20035;-44
2021/12/19 11:30:27;;;;;;;13.75;3.90;;;;;;;6.33;100.00;103173.34;5076725;28;20035;-45
2021/12/19 11:33:20;;;;;;;9.40;2.92;;;;;;;6.34;100.00;103173.28;5075762;28;20470;-47
2021/12/19 11:35:48;;;;;;;7.88;3.80;;;;;;;6.33;100.00;103160.97;5075237;28;20038;-46
2021/12/19 11:38:19;;;;;;;10.65;3.95;;;;;;;6.38;100.00;103167.81;5075879;28;20051;-46
2021/12/19 11:40:45;;;;;;;5.38;3.67;;;;;;;6.43;100.00;103171.09;5076537;28;20022;-47
2021/12/19 11:43:12;;;;;;;8.88;3.67;;;;;;;6.43;100.00;103158.72;5057773;28;20031;-45
2021/12/19 11:45:42;;;;;;;8.15;3.67;;;;;;;6.45;100.00;103154.19;5075790;28;20057;-48
2021/12/19 11:48:15;;;;;;;11.15;4.07;;;;;;;6.45;100.00;103154.19;5077106;28;20028;-43
2021/12/19 11:50:47;;;;;;;9.32;3.92;;;;;;;6.47;100.00;103154.09;5075969;28;20059;-46
2021/12/19 11:53:13;;;;;;;10.70;4.43;;;;;;;6.49;100.00;103155.72;5076490;28;20012;-43
2021/12/19 11:55:41;;;;;;;12.13;4.30;;;;;;;6.49;100.00;103152.22;5076626;28;20582;-44
2021/12/19 11:58:06;;;;;;;10.23;4.85;;;;;;;6.50;100.00;103160.13;5076562;28;20822;-44
2021/12/19 12:00:59;;;;;;;11.38;4.70;;;;;;;6.52;100.00;103152.94;5075790;28;20031;-47
2021/12/19 12:03:27;;;;;;;10.98;4.60;;;;;;;6.54;100.00;103150.19;5056196;28;20065;-45
2021/12/19 12:06:21;;;;;;;11.90;4.90;;;;;;;6.54;100.00;103150.19;5054925;28;20121;-43
2021/12/19 12:09:11;;;;;;;11.88;4.75;;;;;;;6.50;100.00;103133.56;5056889;28;20609;-45
2021/12/19 12:11:39;;;;;;;14.48;4.88;;;;;;;6.44;100.00;103133.88;5055936;28;20094;-44